createdAt,value
2018-04-30T00:01:04.954Z,26.9
2018-04-30T00:11:04.870Z,28.7
2018-04-30T00:21:04.925Z,27.8
2018-04-30T00:31:04.834Z,27.8
2018-04-30T00:41:04.767Z,27.0
2018-04-30T00:51:04.682Z,25.0
2018-04-30T01:01:04.667Z,24.2
2018-04-30T01:11:04.579Z,30.6
2018-04-30T01:21:04.637Z,40.5
2018-04-30T01:31:04.482Z,40.4
2018-04-30T01:41:04.427Z,32.2
2018-04-30T01:51:04.276Z,28.6
2018-04-30T02:01:04.196Z,24.1
2018-04-30T02:11:04.091Z,23.8
2018-04-30T02:21:04.134Z,25.0
2018-04-30T02:31:03.977Z,23.4
2018-04-30T02:41:04.871Z,23.5
2018-04-30T02:51:04.760Z,23.5
2018-04-30T03:01:04.664Z,24.2
2018-04-30T03:11:04.556Z,25.1
2018-04-30T03:21:04.753Z,25.1
2018-04-30T03:31:04.615Z,24.2
2018-04-30T03:41:04.544Z,23.6
2018-04-30T03:51:04.428Z,22.6
2018-04-30T04:01:04.355Z,20.7
2018-04-30T04:11:04.241Z,23.6
2018-04-30T04:21:04.234Z,22.1
2018-04-30T04:31:04.875Z,20.8
2018-04-30T04:41:04.772Z,33.6
2018-04-30T04:51:04.595Z,20.8
2018-04-30T05:01:04.480Z,21.0
2018-04-30T05:11:04.366Z,19.5
2018-04-30T05:21:04.320Z,19.5
2018-04-30T05:31:04.155Z,21.6
2018-04-30T05:41:04.995Z,20.0
2018-04-30T05:51:04.901Z,18.7
2018-04-30T06:01:04.720Z,21.1
2018-04-30T06:11:04.576Z,17.4
2018-04-30T06:21:04.633Z,18.5
2018-04-30T06:31:04.487Z,24.2
2018-04-30T06:41:04.402Z,28.4
2018-04-30T06:51:04.305Z,27.0
2018-04-30T07:01:04.120Z,16.2
2018-04-30T07:11:05.051Z,13.9
2018-04-30T07:21:05.172Z,13.3
2018-04-30T07:31:04.101Z,13.9
2018-04-30T07:41:05.109Z,14.9
2018-04-30T07:51:05.057Z,13.7
2018-04-30T08:01:05.236Z,14.5
2018-04-30T08:11:04.246Z,13.0
2018-04-30T08:21:04.359Z,12.1
2018-04-30T08:31:04.434Z,12.8
2018-04-30T08:41:04.409Z,12.5
2018-04-30T08:51:04.384Z,12.6
2018-04-30T09:01:04.355Z,10.0
2018-04-30T09:11:04.331Z,9.4
2018-04-30T09:21:03.441Z,8.2
2018-04-30T09:31:04.399Z,8.5
2018-04-30T09:41:04.305Z,9.0
2018-04-30T09:51:03.208Z,9.0
2018-04-30T10:01:05.186Z,9.4
2018-04-30T10:11:05.157Z,10.6
2018-04-30T10:21:05.426Z,9.2
2018-04-30T10:31:03.449Z,9.8
2018-04-30T10:41:03.391Z,8.6
2018-04-30T10:51:03.368Z,7.7
2018-04-30T11:01:03.333Z,7.3
2018-04-30T11:11:04.312Z,7.7
2018-04-30T11:21:03.399Z,6.8
2018-04-30T11:31:03.301Z,7.2
2018-04-30T11:41:05.281Z,8.5
2018-04-30T11:51:05.287Z,6.6
2018-04-30T12:01:05.604Z,6.8
2018-04-30T12:11:05.160Z,7.9
2018-04-30T12:21:03.437Z,8.0
2018-04-30T12:31:04.424Z,7.3
2018-04-30T12:41:03.391Z,7.7
2018-04-30T12:51:03.407Z,6.9
2018-04-30T13:01:04.292Z,7.9
2018-04-30T13:11:05.302Z,8.1
2018-04-30T13:21:03.405Z,7.6
2018-04-30T13:31:03.357Z,8.7
2018-04-30T13:41:04.263Z,6.9
2018-04-30T13:51:05.235Z,7.2
2018-04-30T14:01:05.160Z,7.0
2018-04-30T14:11:05.159Z,7.7
2018-04-30T14:21:05.218Z,7.2
2018-04-30T14:31:05.248Z,10.5
2018-04-30T14:41:05.207Z,9.6
2018-04-30T14:51:04.132Z,8.2
2018-04-30T15:01:05.098Z,6.7
2018-04-30T15:11:05.012Z,7.8
2018-04-30T15:21:05.078Z,7.9
2018-04-30T15:31:05.020Z,9.2
2018-04-30T15:41:05.146Z,7.1
2018-04-30T15:51:05.158Z,13.7
2018-04-30T16:01:04.135Z,8.9
2018-04-30T16:11:05.097Z,8.9
2018-04-30T16:21:04.163Z,7.8
2018-04-30T16:31:04.064Z,11.1
2018-04-30T16:41:05.030Z,7.6
2018-04-30T16:51:05.023Z,9.0
2018-04-30T17:01:04.963Z,10.5
2018-04-30T17:11:04.988Z,10.5
2018-04-30T17:21:05.122Z,10.9
2018-04-30T17:31:05.168Z,8.9
2018-04-30T17:41:05.124Z,11.0
2018-04-30T17:51:05.115Z,9.7
2018-04-30T18:01:05.121Z,9.4
2018-04-30T18:11:05.065Z,9.6
2018-04-30T18:21:05.183Z,9.2
2018-04-30T18:31:04.086Z,9.4
2018-04-30T18:41:05.031Z,10.9
2018-04-30T18:51:04.969Z,11.6
2018-04-30T19:01:04.909Z,10.3
2018-04-30T19:11:04.879Z,10.5
2018-04-30T19:21:04.926Z,11.3
2018-04-30T19:31:04.871Z,12.4
2018-04-30T19:41:04.757Z,12.1
2018-04-30T19:51:03.707Z,9.9
2018-04-30T20:01:04.653Z,13.1
2018-04-30T20:11:03.557Z,10.9
2018-04-30T20:21:04.614Z,12.1
2018-04-30T20:31:03.462Z,9.7
2018-04-30T20:41:05.463Z,8.9
2018-04-30T20:51:05.346Z,8.3
2018-04-30T21:01:05.259Z,8.7
2018-04-30T21:11:05.162Z,8.2
2018-04-30T21:21:05.190Z,9.5
2018-04-30T21:31:04.099Z,9.2
2018-04-30T21:41:05.018Z,9.4
2018-04-30T21:51:04.796Z,10.8
2018-04-30T22:01:04.712Z,11.9
2018-04-30T22:11:04.680Z,11.7
2018-04-30T22:21:04.741Z,12.6
2018-04-30T22:31:04.643Z,12.9
2018-04-30T22:41:04.547Z,12.4
2018-04-30T22:51:05.460Z,14.1
2018-04-30T23:01:05.365Z,12.9
2018-04-30T23:11:05.309Z,12.8
2018-04-30T23:21:05.396Z,21.1
2018-04-30T23:31:05.310Z,13.3
2018-04-30T23:41:05.214Z,13.2
2018-04-30T23:51:05.132Z,13.4
